sensor_id;sensor_type;location;lat;lon;timestamp;P1;durP1;ratioP1;P2;durP2;ratioP2
66118;SDS011;52912;48.564;9.302;2023-11-22T00:00:33;15.48;;;7.50;;
66118;SDS011;52912;48.564;9.302;2023-11-22T00:02:58;18.73;;;7.82;;
66118;SDS011;52912;48.564;9.302;2023-11-22T00:05:24;19.88;;;8.32;;
66118;SDS011;52912;48.564;9.302;2023-11-22T00:07:49;12.23;;;7.88;;
66118;SDS011;52912;48.564;9.302;2023-11-22T00:10:15;14.80;;;7.95;;
66118;SDS011;52912;48.564;9.302;2023-11-22T00:12:41;17.23;;;8.10;;
66118;SDS011;52912;48.564;9.302;2023-11-22T00:15:07;17.00;;;7.88;;
66118;SDS011;52912;48.564;9.302;2023-11-22T00:17:33;15.30;;;8.32;;
66118;SDS011;52912;48.564;9.302;2023-11-22T00:19:59;13.57;;;7.90;;
66118;SDS011;52912;48.564;9.302;2023-11-22T00:22:24;15.60;;;8.60;;
66118;SDS011;52912;48.564;9.302;2023-11-22T00:24:50;16.42;;;8.45;;
66118;SDS011;52912;48.564;9.302;2023-11-22T00:27:15;14.52;;;8.35;;
66118;SDS011;52912;48.564;9.302;2023-11-22T00:29:42;13.30;;;7.88;;
66118;SDS011;52912;48.564;9.302;2023-11-22T00:32:07;15.48;;;8.40;;
66118;SDS011;52912;48.564;9.302;2023-11-22T00:34:33;20.20;;;8.45;;
66118;SDS011;52912;48.564;9.302;2023-11-22T00:36:58;14.63;;;8.85;;
66118;SDS011;52912;48.564;9.302;2023-11-22T00:39:24;17.42;;;9.00;;
66118;SDS011;52912;48.564;9.302;2023-11-22T00:41:49;17.55;;;8.57;;
66118;SDS011;52912;48.564;9.302;2023-11-22T00:44:15;17.48;;;8.85;;
66118;SDS011;52912;48.564;9.302;2023-11-22T00:46:41;18.58;;;8.80;;
66118;SDS011;52912;48.564;9.302;2023-11-22T00:49:07;16.83;;;8.43;;
66118;SDS011;52912;48.564;9.302;2023-11-22T00:51:32;15.02;;;8.95;;
66118;SDS011;52912;48.564;9.302;2023-11-22T00:53:58;19.00;;;8.82;;
66118;SDS011;52912;48.564;9.302;2023-11-22T00:56:23;17.35;;;8.43;;
66118;SDS011;52912;48.564;9.302;2023-11-22T00:58:49;15.38;;;8.93;;
66118;SDS011;52912;48.564;9.302;2023-11-22T01:01:14;15.13;;;7.95;;
66118;SDS011;52912;48.564;9.302;2023-11-22T01:03:41;14.73;;;7.93;;
66118;SDS011;52912;48.564;9.302;2023-11-22T01:06:06;14.63;;;7.60;;
66118;SDS011;52912;48.564;9.302;2023-11-22T01:08:32;15.02;;;8.25;;
66118;SDS011;52912;48.564;9.302;2023-11-22T01:10:57;13.65;;;7.07;;
66118;SDS011;52912;48.564;9.302;2023-11-22T01:13:23;11.77;;;7.03;;
66118;SDS011;52912;48.564;9.302;2023-11-22T01:15:48;7.82;;;4.47;;
66118;SDS011;52912;48.564;9.302;2023-11-22T01:18:14;7.88;;;4.45;;
66118;SDS011;52912;48.564;9.302;2023-11-22T01:20:40;3.65;;;2.55;;
66118;SDS011;52912;48.564;9.302;2023-11-22T01:23:06;4.68;;;2.60;;
66118;SDS011;52912;48.564;9.302;2023-11-22T01:25:31;4.22;;;2.80;;
66118;SDS011;52912;48.564;9.302;2023-11-22T01:27:57;3.63;;;2.38;;
66118;SDS011;52912;48.564;9.302;2023-11-22T01:30:22;5.15;;;2.67;;
66118;SDS011;52912;48.564;9.302;2023-11-22T01:32:48;3.70;;;2.50;;
66118;SDS011;52912;48.564;9.302;2023-11-22T01:35:13;4.40;;;2.95;;
66118;SDS011;52912;48.564;9.302;2023-11-22T01:37:40;3.25;;;2.30;;
66118;SDS011;52912;48.564;9.302;2023-11-22T01:40:06;6.53;;;3.13;;
66118;SDS011;52912;48.564;9.302;2023-11-22T01:42:32;4.93;;;3.22;;
66118;SDS011;52912;48.564;9.302;2023-11-22T01:44:58;4.28;;;2.90;;
66118;SDS011;52912;48.564;9.302;2023-11-22T01:47:23;4.30;;;2.92;;
66118;SDS011;52912;48.564;9.302;2023-11-22T01:49:48;4.93;;;3.15;;
66118;SDS011;52912;48.564;9.302;2023-11-22T01:52:14;5.45;;;3.22;;
66118;SDS011;52912;48.564;9.302;2023-11-22T01:54:41;4.70;;;3.33;;
66118;SDS011;52912;48.564;9.302;2023-11-22T01:57:07;3.83;;;2.95;;
66118;SDS011;52912;48.564;9.302;2023-11-22T01:59:32;4.85;;;3.15;;
66118;SDS011;52912;48.564;9.302;2023-11-22T02:01:58;4.55;;;3.15;;
66118;SDS011;52912;48.564;9.302;2023-11-22T02:04:24;5.32;;;3.10;;
66118;SDS011;52912;48.564;9.302;2023-11-22T02:06:50;3.45;;;2.47;;
66118;SDS011;52912;48.564;9.302;2023-11-22T02:09:16;3.92;;;2.65;;
66118;SDS011;52912;48.564;9.302;2023-11-22T02:11:43;5.22;;;3.45;;
66118;SDS011;52912;48.564;9.302;2023-11-22T02:14:08;5.28;;;3.30;;
66118;SDS011;52912;48.564;9.302;2023-11-22T02:16:34;6.13;;;3.95;;
66118;SDS011;52912;48.564;9.302;2023-11-22T02:18:59;5.38;;;3.45;;
66118;SDS011;52912;48.564;9.302;2023-11-22T02:21:25;5.60;;;3.67;;
66118;SDS011;52912;48.564;9.302;2023-11-22T02:23:52;7.05;;;4.32;;
66118;SDS011;52912;48.564;9.302;2023-11-22T02:26:17;5.53;;;3.85;;
66118;SDS011;52912;48.564;9.302;2023-11-22T02:28:43;6.55;;;4.40;;
66118;SDS011;52912;48.564;9.302;2023-11-22T02:31:08;6.78;;;4.43;;
66118;SDS011;52912;48.564;9.302;2023-11-22T02:33:34;6.45;;;4.07;;
66118;SDS011;52912;48.564;9.302;2023-11-22T02:35:59;6.53;;;4.05;;
66118;SDS011;52912;48.564;9.302;2023-11-22T02:38:25;5.85;;;4.10;;
66118;SDS011;52912;48.564;9.302;2023-11-22T02:40:51;7.85;;;4.53;;
66118;SDS011;52912;48.564;9.302;2023-11-22T02:43:17;6.45;;;3.83;;
66118;SDS011;52912;48.564;9.302;2023-11-22T02:45:42;6.40;;;4.40;;
66118;SDS011;52912;48.564;9.302;2023-11-22T02:48:08;7.78;;;4.50;;
66118;SDS011;52912;48.564;9.302;2023-11-22T02:50:33;5.18;;;3.40;;
66118;SDS011;52912;48.564;9.302;2023-11-22T02:52:59;6.10;;;3.88;;
66118;SDS011;52912;48.564;9.302;2023-11-22T02:55:24;5.30;;;3.67;;
66118;SDS011;52912;48.564;9.302;2023-11-22T02:57:51;5.25;;;3.60;;
66118;SDS011;52912;48.564;9.302;2023-11-22T03:00:17;5.28;;;3.22;;
66118;SDS011;52912;48.564;9.302;2023-11-22T03:02:43;7.70;;;3.22;;
66118;SDS011;52912;48.564;9.302;2023-11-22T03:05:08;5.95;;;3.33;;
66118;SDS011;52912;48.564;9.302;2023-11-22T03:07:34;5.00;;;3.45;;
66118;SDS011;52912;48.564;9.302;2023-11-22T03:09:59;5.40;;;3.80;;
66118;SDS011;52912;48.564;9.302;2023-11-22T03:12:25;4.95;;;3.22;;
66118;SDS011;52912;48.564;9.302;2023-11-22T03:14:52;5.82;;;3.92;;
66118;SDS011;52912;48.564;9.302;2023-11-22T03:17:17;6.32;;;3.75;;
66118;SDS011;52912;48.564;9.302;2023-11-22T03:19:42;5.82;;;3.65;;
66118;SDS011;52912;48.564;9.302;2023-11-22T03:22:08;6.80;;;4.40;;
66118;SDS011;52912;48.564;9.302;2023-11-22T03:24:33;5.47;;;3.88;;
66118;SDS011;52912;48.564;9.302;2023-11-22T03:26:59;6.70;;;3.97;;
66118;SDS011;52912;48.564;9.302;2023-11-22T03:29:24;5.72;;;3.70;;
66118;SDS011;52912;48.564;9.302;2023-11-22T03:31:51;6.32;;;3.90;;
66118;SDS011;52912;48.564;9.302;2023-11-22T03:34:18;6.13;;;4.10;;
66118;SDS011;52912;48.564;9.302;2023-11-22T03:36:44;6.53;;;4.30;;
66118;SDS011;52912;48.564;9.302;2023-11-22T03:39:09;5.57;;;3.40;;
66118;SDS011;52912;48.564;9.302;2023-11-22T03:41:35;5.30;;;3.60;;
66118;SDS011;52912;48.564;9.302;2023-11-22T03:44:00;6.82;;;3.80;;
66118;SDS011;52912;48.564;9.302;2023-11-22T03:46:25;6.28;;;3.83;;
66118;SDS011;52912;48.564;9.302;2023-11-22T03:48:52;7.35;;;4.22;;
66118;SDS011;52912;48.564;9.302;2023-11-22T03:51:18;6.32;;;4.32;;
66118;SDS011;52912;48.564;9.302;2023-11-22T03:53:43;6.43;;;4.13;;
66118;SDS011;52912;48.564;9.302;2023-11-22T03:56:08;6.88;;;4.40;;
66118;SDS011;52912;48.564;9.302;2023-11-22T03:58:34;6.95;;;4.72;;
66118;SDS011;52912;48.564;9.302;2023-11-22T04:00:59;6.47;;;4.47;;
66118;SDS011;52912;48.564;9.302;2023-11-22T04:03:25;7.80;;;4.50;;
66118;SDS011;52912;48.564;9.302;2023-11-22T04:05:51;5.15;;;3.40;;
66118;SDS011;52912;48.564;9.302;2023-11-22T04:08:17;7.15;;;4.10;;
66118;SDS011;52912;48.564;9.302;2023-11-22T04:10:42;8.52;;;5.00;;
66118;SDS011;52912;48.564;9.302;2023-11-22T04:13:08;6.28;;;3.95;;
66118;SDS011;52912;48.564;9.302;2023-11-22T04:15:33;6.40;;;4.13;;
66118;SDS011;52912;48.564;9.302;2023-11-22T04:17:59;6.00;;;3.70;;
66118;SDS011;52912;48.564;9.302;2023-11-22T04:20:24;7.68;;;4.78;;
66118;SDS011;52912;48.564;9.302;2023-11-22T04:22:51;7.05;;;3.70;;
66118;SDS011;52912;48.564;9.302;2023-11-22T04:25:16;6.90;;;4.10;;
66118;SDS011;52912;48.564;9.302;2023-11-22T04:27:42;6.50;;;3.53;;
66118;SDS011;52912;48.564;9.302;2023-11-22T04:30:08;6.68;;;4.00;;
66118;SDS011;52912;48.564;9.302;2023-11-22T04:32:35;6.93;;;4.28;;
66118;SDS011;52912;48.564;9.302;2023-11-22T04:35:01;6.43;;;3.67;;
66118;SDS011;52912;48.564;9.302;2023-11-22T04:37:26;7.35;;;3.90;;
66118;SDS011;52912;48.564;9.302;2023-11-22T04:39:53;7.07;;;4.32;;
66118;SDS011;52912;48.564;9.302;2023-11-22T04:42:18;6.78;;;4.20;;
66118;SDS011;52912;48.564;9.302;2023-11-22T04:44:44;6.55;;;3.60;;
66118;SDS011;52912;48.564;9.302;2023-11-22T04:47:09;9.48;;;4.72;;
66118;SDS011;52912;48.564;9.302;2023-11-22T04:49:34;6.85;;;4.60;;
66118;SDS011;52912;48.564;9.302;2023-11-22T04:52:00;8.40;;;5.18;;
66118;SDS011;52912;48.564;9.302;2023-11-22T04:54:25;8.30;;;5.20;;
66118;SDS011;52912;48.564;9.302;2023-11-22T04:56:52;10.57;;;5.00;;
66118;SDS011;52912;48.564;9.302;2023-11-22T04:59:18;9.10;;;4.63;;
66118;SDS011;52912;48.564;9.302;2023-11-22T05:01:43;11.88;;;4.93;;
66118;SDS011;52912;48.564;9.302;2023-11-22T05:04:08;9.00;;;4.72;;
66118;SDS011;52912;48.564;9.302;2023-11-22T05:06:34;7.25;;;4.32;;
66118;SDS011;52912;48.564;9.302;2023-11-22T05:08:59;7.30;;;4.50;;
66118;SDS011;52912;48.564;9.302;2023-11-22T05:11:25;7.63;;;4.45;;
66118;SDS011;52912;48.564;9.302;2023-11-22T05:13:52;8.55;;;4.70;;
66118;SDS011;52912;48.564;9.302;2023-11-22T05:16:17;7.55;;;4.50;;
66118;SDS011;52912;48.564;9.302;2023-11-22T05:18:42;7.43;;;3.95;;
66118;SDS011;52912;48.564;9.302;2023-11-22T05:21:08;7.65;;;4.35;;
66118;SDS011;52912;48.564;9.302;2023-11-22T05:23:33;10.20;;;4.70;;
66118;SDS011;52912;48.564;9.302;2023-11-22T05:25:59;9.20;;;5.00;;
66118;SDS011;52912;48.564;9.302;2023-11-22T05:28:24;6.78;;;3.83;;
66118;SDS011;52912;48.564;9.302;2023-11-22T05:30:51;6.40;;;3.70;;
66118;SDS011;52912;48.564;9.302;2023-11-22T05:33:16;5.63;;;3.17;;
66118;SDS011;52912;48.564;9.302;2023-11-22T05:35:42;8.23;;;3.78;;
66118;SDS011;52912;48.564;9.302;2023-11-22T05:38:08;6.53;;;3.80;;
66118;SDS011;52912;48.564;9.302;2023-11-22T05:40:33;5.55;;;3.80;;
66118;SDS011;52912;48.564;9.302;2023-11-22T05:42:59;7.53;;;4.18;;
66118;SDS011;52912;48.564;9.302;2023-11-22T05:45:24;7.13;;;4.13;;
66118;SDS011;52912;48.564;9.302;2023-11-22T05:47:51;6.95;;;4.03;;
66118;SDS011;52912;48.564;9.302;2023-11-22T05:50:17;7.55;;;4.30;;
66118;SDS011;52912;48.564;9.302;2023-11-22T05:52:42;7.32;;;4.93;;
66118;SDS011;52912;48.564;9.302;2023-11-22T05:55:08;6.60;;;4.05;;
66118;SDS011;52912;48.564;9.302;2023-11-22T05:57:33;9.07;;;4.53;;
66118;SDS011;52912;48.564;9.302;2023-11-22T05:59:59;7.45;;;3.92;;
66118;SDS011;52912;48.564;9.302;2023-11-22T06:02:24;7.13;;;4.55;;
66118;SDS011;52912;48.564;9.302;2023-11-22T06:04:51;7.32;;;4.00;;
66118;SDS011;52912;48.564;9.302;2023-11-22T06:07:17;6.78;;;4.03;;
66118;SDS011;52912;48.564;9.302;2023-11-22T06:09:42;6.88;;;4.10;;
66118;SDS011;52912;48.564;9.302;2023-11-22T06:12:08;6.47;;;3.80;;
66118;SDS011;52912;48.564;9.302;2023-11-22T06:14:33;7.25;;;4.28;;
66118;SDS011;52912;48.564;9.302;2023-11-22T06:16:59;6.50;;;3.50;;
66118;SDS011;52912;48.564;9.302;2023-11-22T06:19:24;5.57;;;3.72;;
66118;SDS011;52912;48.564;9.302;2023-11-22T06:21:51;10.45;;;4.30;;
66118;SDS011;52912;48.564;9.302;2023-11-22T06:24:16;5.22;;;3.05;;
66118;SDS011;52912;48.564;9.302;2023-11-22T06:26:42;7.05;;;3.88;;
66118;SDS011;52912;48.564;9.302;2023-11-22T06:29:07;6.70;;;3.50;;
66118;SDS011;52912;48.564;9.302;2023-11-22T06:31:33;5.13;;;3.25;;
66118;SDS011;52912;48.564;9.302;2023-11-22T06:33:58;6.13;;;3.63;;
66118;SDS011;52912;48.564;9.302;2023-11-22T06:36:24;4.70;;;2.97;;
66118;SDS011;52912;48.564;9.302;2023-11-22T06:39:17;5.57;;;3.42;;
66118;SDS011;52912;48.564;9.302;2023-11-22T06:41:45;5.93;;;3.50;;
66118;SDS011;52912;48.564;9.302;2023-11-22T06:44:10;5.07;;;3.25;;
66118;SDS011;52912;48.564;9.302;2023-11-22T06:46:36;6.00;;;3.60;;
66118;SDS011;52912;48.564;9.302;2023-11-22T06:49:01;5.55;;;3.17;;
66118;SDS011;52912;48.564;9.302;2023-11-22T06:51:27;7.15;;;4.10;;
66118;SDS011;52912;48.564;9.302;2023-11-22T06:53:52;7.38;;;3.78;;
66118;SDS011;52912;48.564;9.302;2023-11-22T06:56:19;6.18;;;3.28;;
66118;SDS011;52912;48.564;9.302;2023-11-22T06:58:44;7.13;;;3.90;;
66118;SDS011;52912;48.564;9.302;2023-11-22T07:01:10;8.35;;;3.60;;
66118;SDS011;52912;48.564;9.302;2023-11-22T07:03:36;7.32;;;3.95;;
66118;SDS011;52912;48.564;9.302;2023-11-22T07:06:01;7.18;;;3.35;;
66118;SDS011;52912;48.564;9.302;2023-11-22T07:08:27;5.53;;;3.10;;
66118;SDS011;52912;48.564;9.302;2023-11-22T07:10:52;6.00;;;3.72;;
66118;SDS011;52912;48.564;9.302;2023-11-22T07:13:19;7.95;;;4.03;;
66118;SDS011;52912;48.564;9.302;2023-11-22T07:15:44;6.97;;;3.90;;
66118;SDS011;52912;48.564;9.302;2023-11-22T07:18:10;6.97;;;3.80;;
66118;SDS011;52912;48.564;9.302;2023-11-22T07:20:35;5.45;;;3.30;;
66118;SDS011;52912;48.564;9.302;2023-11-22T07:23:01;6.40;;;3.25;;
66118;SDS011;52912;48.564;9.302;2023-11-22T07:25:26;5.43;;;3.25;;
66118;SDS011;52912;48.564;9.302;2023-11-22T07:27:52;6.03;;;3.65;;
66118;SDS011;52912;48.564;9.302;2023-11-22T07:30:19;6.25;;;3.40;;
66118;SDS011;52912;48.564;9.302;2023-11-22T07:32:44;5.97;;;3.65;;
66118;SDS011;52912;48.564;9.302;2023-11-22T07:35:09;7.00;;;3.85;;
66118;SDS011;52912;48.564;9.302;2023-11-22T07:37:35;5.68;;;3.53;;
66118;SDS011;52912;48.564;9.302;2023-11-22T07:40:00;5.72;;;3.17;;
66118;SDS011;52912;48.564;9.302;2023-11-22T07:42:26;5.93;;;3.83;;
66118;SDS011;52912;48.564;9.302;2023-11-22T07:44:51;6.05;;;3.85;;
66118;SDS011;52912;48.564;9.302;2023-11-22T07:47:18;9.93;;;3.63;;
66118;SDS011;52912;48.564;9.302;2023-11-22T07:49:44;7.10;;;3.53;;
66118;SDS011;52912;48.564;9.302;2023-11-22T07:52:09;5.13;;;3.53;;
66118;SDS011;52912;48.564;9.302;2023-11-22T07:54:34;5.90;;;3.55;;
66118;SDS011;52912;48.564;9.302;2023-11-22T07:57:00;6.22;;;3.58;;
66118;SDS011;52912;48.564;9.302;2023-11-22T07:59:25;6.47;;;3.70;;
66118;SDS011;52912;48.564;9.302;2023-11-22T08:01:51;5.22;;;3.08;;
66118;SDS011;52912;48.564;9.302;2023-11-22T08:04:18;5.32;;;3.40;;
66118;SDS011;52912;48.564;9.302;2023-11-22T08:06:43;5.53;;;3.30;;
66118;SDS011;52912;48.564;9.302;2023-11-22T08:09:10;5.97;;;3.45;;
66118;SDS011;52912;48.564;9.302;2023-11-22T08:11:35;6.03;;;3.58;;
66118;SDS011;52912;48.564;9.302;2023-11-22T08:14:01;5.50;;;3.50;;
66118;SDS011;52912;48.564;9.302;2023-11-22T08:16:26;6.70;;;3.33;;
66118;SDS011;52912;48.564;9.302;2023-11-22T08:18:52;5.35;;;3.15;;
66118;SDS011;52912;48.564;9.302;2023-11-22T08:21:19;6.57;;;4.07;;
66118;SDS011;52912;48.564;9.302;2023-11-22T08:23:45;5.38;;;3.45;;
66118;SDS011;52912;48.564;9.302;2023-11-22T08:26:10;6.00;;;3.20;;
66118;SDS011;52912;48.564;9.302;2023-11-22T08:28:36;12.25;;;4.00;;
66118;SDS011;52912;48.564;9.302;2023-11-22T08:31:01;7.15;;;3.63;;
66118;SDS011;52912;48.564;9.302;2023-11-22T08:33:27;8.50;;;4.95;;
66118;SDS011;52912;48.564;9.302;2023-11-22T08:35:52;10.93;;;5.60;;
66118;SDS011;52912;48.564;9.302;2023-11-22T08:38:19;10.98;;;6.30;;
66118;SDS011;52912;48.564;9.302;2023-11-22T08:40:45;9.07;;;5.40;;
66118;SDS011;52912;48.564;9.302;2023-11-22T08:43:10;10.75;;;5.35;;
66118;SDS011;52912;48.564;9.302;2023-11-22T08:45:36;8.30;;;4.63;;
66118;SDS011;52912;48.564;9.302;2023-11-22T08:48:01;8.80;;;5.30;;
66118;SDS011;52912;48.564;9.302;2023-11-22T08:50:27;8.27;;;4.70;;
66118;SDS011;52912;48.564;9.302;2023-11-22T08:52:52;9.80;;;5.07;;
66118;SDS011;52912;48.564;9.302;2023-11-22T08:55:19;5.75;;;3.85;;
66118;SDS011;52912;48.564;9.302;2023-11-22T08:57:45;7.00;;;4.00;;
66118;SDS011;52912;48.564;9.302;2023-11-22T09:00:10;7.22;;;4.28;;
66118;SDS011;52912;48.564;9.302;2023-11-22T09:02:37;6.82;;;3.95;;
66118;SDS011;52912;48.564;9.302;2023-11-22T09:05:03;6.03;;;3.65;;
66118;SDS011;52912;48.564;9.302;2023-11-22T09:07:28;7.07;;;4.00;;
66118;SDS011;52912;48.564;9.302;2023-11-22T09:09:55;6.32;;;3.60;;
66118;SDS011;52912;48.564;9.302;2023-11-22T09:12:22;6.47;;;3.67;;
66118;SDS011;52912;48.564;9.302;2023-11-22T09:14:49;7.15;;;3.92;;
66118;SDS011;52912;48.564;9.302;2023-11-22T09:17:14;5.55;;;3.20;;
66118;SDS011;52912;48.564;9.302;2023-11-22T09:19:40;5.60;;;3.20;;
66118;SDS011;52912;48.564;9.302;2023-11-22T09:22:05;6.03;;;3.25;;
66118;SDS011;52912;48.564;9.302;2023-11-22T09:24:31;7.53;;;3.65;;
66118;SDS011;52912;48.564;9.302;2023-11-22T09:26:57;6.70;;;3.67;;
66118;SDS011;52912;48.564;9.302;2023-11-22T09:29:23;5.47;;;3.35;;
66118;SDS011;52912;48.564;9.302;2023-11-22T09:31:49;5.32;;;3.08;;
66118;SDS011;52912;48.564;9.302;2023-11-22T09:34:14;7.45;;;3.33;;
66118;SDS011;52912;48.564;9.302;2023-11-22T09:36:40;4.63;;;3.10;;
66118;SDS011;52912;48.564;9.302;2023-11-22T09:39:05;6.03;;;3.40;;
66118;SDS011;52912;48.564;9.302;2023-11-22T09:41:31;6.30;;;3.75;;
66118;SDS011;52912;48.564;9.302;2023-11-22T09:43:56;8.65;;;3.85;;
66118;SDS011;52912;48.564;9.302;2023-11-22T09:46:23;6.68;;;3.58;;
66118;SDS011;52912;48.564;9.302;2023-11-22T09:48:49;7.85;;;3.47;;
66118;SDS011;52912;48.564;9.302;2023-11-22T09:51:15;7.03;;;3.67;;
66118;SDS011;52912;48.564;9.302;2023-11-22T09:53:47;5.57;;;3.40;;
66118;SDS011;52912;48.564;9.302;2023-11-22T09:56:17;7.40;;;4.22;;
66118;SDS011;52912;48.564;9.302;2023-11-22T09:58:44;6.45;;;3.70;;
66118;SDS011;52912;48.564;9.302;2023-11-22T10:01:10;5.25;;;3.65;;
66118;SDS011;52912;48.564;9.302;2023-11-22T10:03:37;9.23;;;3.25;;
66118;SDS011;52912;48.564;9.302;2023-11-22T10:06:03;5.63;;;3.65;;
66118;SDS011;52912;48.564;9.302;2023-11-22T10:08:29;6.53;;;4.10;;
66118;SDS011;52912;48.564;9.302;2023-11-22T10:10:55;6.45;;;3.63;;
66118;SDS011;52912;48.564;9.302;2023-11-22T10:13:21;5.43;;;3.28;;
66118;SDS011;52912;48.564;9.302;2023-11-22T10:15:47;6.85;;;3.45;;
66118;SDS011;52912;48.564;9.302;2023-11-22T10:18:12;6.13;;;3.58;;
66118;SDS011;52912;48.564;9.302;2023-11-22T10:20:40;7.07;;;3.80;;
66118;SDS011;52912;48.564;9.302;2023-11-22T10:23:09;5.47;;;3.58;;
66118;SDS011;52912;48.564;9.302;2023-11-22T10:25:36;7.35;;;3.60;;
66118;SDS011;52912;48.564;9.302;2023-11-22T10:28:02;8.70;;;4.13;;
66118;SDS011;52912;48.564;9.302;2023-11-22T10:30:27;5.65;;;3.30;;
66118;SDS011;52912;48.564;9.302;2023-11-22T10:32:53;5.72;;;3.50;;
66118;SDS011;52912;48.564;9.302;2023-11-22T10:35:18;6.50;;;3.67;;
66118;SDS011;52912;48.564;9.302;2023-11-22T10:37:45;7.20;;;3.58;;
66118;SDS011;52912;48.564;9.302;2023-11-22T10:40:12;9.82;;;3.88;;
66118;SDS011;52912;48.564;9.302;2023-11-22T10:42:38;9.93;;;3.60;;
66118;SDS011;52912;48.564;9.302;2023-11-22T10:45:06;9.07;;;3.90;;
66118;SDS011;52912;48.564;9.302;2023-11-22T10:47:34;9.30;;;4.55;;
66118;SDS011;52912;48.564;9.302;2023-11-22T10:50:02;10.63;;;3.65;;
66118;SDS011;52912;48.564;9.302;2023-11-22T10:52:28;10.65;;;4.25;;
66118;SDS011;52912;48.564;9.302;2023-11-22T10:54:58;7.88;;;4.40;;
66118;SDS011;52912;48.564;9.302;2023-11-22T10:57:27;7.75;;;3.88;;
66118;SDS011;52912;48.564;9.302;2023-11-22T11:02:22;10.85;;;4.82;;
66118;SDS011;52912;48.564;9.302;2023-11-22T11:04:51;9.25;;;4.45;;
66118;SDS011;52912;48.564;9.302;2023-11-22T11:07:23;8.85;;;4.53;;
66118;SDS011;52912;48.564;9.302;2023-11-22T11:09:51;9.10;;;4.90;;
66118;SDS011;52912;48.564;9.302;2023-11-22T11:12:19;7.28;;;4.00;;
66118;SDS011;52912;48.564;9.302;2023-11-22T11:14:45;8.10;;;4.50;;
66118;SDS011;52912;48.564;9.302;2023-11-22T11:17:11;6.30;;;4.05;;
66118;SDS011;52912;48.564;9.302;2023-11-22T11:19:37;8.77;;;5.05;;
66118;SDS011;52912;48.564;9.302;2023-11-22T11:22:03;7.82;;;4.78;;
66118;SDS011;52912;48.564;9.302;2023-11-22T11:24:37;8.32;;;4.55;;
66118;SDS011;52912;48.564;9.302;2023-11-22T11:27:03;7.40;;;4.63;;
66118;SDS011;52912;48.564;9.302;2023-11-22T11:29:32;10.13;;;4.30;;
66118;SDS011;52912;48.564;9.302;2023-11-22T11:31:59;8.25;;;5.00;;
66118;SDS011;52912;48.564;9.302;2023-11-22T11:34:24;8.60;;;5.03;;
66118;SDS011;52912;48.564;9.302;2023-11-22T11:36:52;7.57;;;4.57;;
66118;SDS011;52912;48.564;9.302;2023-11-22T11:39:18;14.87;;;4.93;;
66118;SDS011;52912;48.564;9.302;2023-11-22T11:41:50;8.15;;;5.25;;
66118;SDS011;52912;48.564;9.302;2023-11-22T11:44:15;8.82;;;5.03;;
66118;SDS011;52912;48.564;9.302;2023-11-22T11:46:43;9.75;;;5.15;;
66118;SDS011;52912;48.564;9.302;2023-11-22T11:49:11;8.48;;;4.85;;
66118;SDS011;52912;48.564;9.302;2023-11-22T11:51:37;7.28;;;4.93;;
66118;SDS011;52912;48.564;9.302;2023-11-22T11:54:03;8.75;;;4.80;;
66118;SDS011;52912;48.564;9.302;2023-11-22T11:56:28;9.00;;;4.60;;
66118;SDS011;52912;48.564;9.302;2023-11-22T11:58:55;7.05;;;4.82;;
66118;SDS011;52912;48.564;9.302;2023-11-22T12:01:22;11.10;;;5.65;;
66118;SDS011;52912;48.564;9.302;2023-11-22T12:03:49;7.68;;;4.95;;
66118;SDS011;52912;48.564;9.302;2023-11-22T12:06:14;7.25;;;4.35;;
66118;SDS011;52912;48.564;9.302;2023-11-22T12:08:40;9.23;;;5.10;;
66118;SDS011;52912;48.564;9.302;2023-11-22T12:11:05;8.23;;;4.95;;
66118;SDS011;52912;48.564;9.302;2023-11-22T12:13:31;8.00;;;4.93;;
66118;SDS011;52912;48.564;9.302;2023-11-22T12:15:57;8.70;;;4.90;;
66118;SDS011;52912;48.564;9.302;2023-11-22T12:18:22;7.70;;;4.63;;
66118;SDS011;52912;48.564;9.302;2023-11-22T12:20:56;8.00;;;4.95;;
66118;SDS011;52912;48.564;9.302;2023-11-22T12:23:22;6.90;;;4.55;;
66118;SDS011;52912;48.564;9.302;2023-11-22T12:25:48;7.80;;;4.97;;
66118;SDS011;52912;48.564;9.302;2023-11-22T12:28:14;8.20;;;5.30;;
66118;SDS011;52912;48.564;9.302;2023-11-22T12:30:41;8.18;;;4.90;;
66118;SDS011;52912;48.564;9.302;2023-11-22T12:33:07;8.80;;;5.47;;
66118;SDS011;52912;48.564;9.302;2023-11-22T12:35:34;9.23;;;5.57;;
66118;SDS011;52912;48.564;9.302;2023-11-22T12:38:01;8.27;;;5.35;;
66118;SDS011;52912;48.564;9.302;2023-11-22T12:40:29;12.80;;;6.70;;
66118;SDS011;52912;48.564;9.302;2023-11-22T12:42:55;12.13;;;6.07;;
66118;SDS011;52912;48.564;9.302;2023-11-22T12:45:20;13.15;;;6.47;;
66118;SDS011;52912;48.564;9.302;2023-11-22T12:47:47;11.35;;;6.47;;
66118;SDS011;52912;48.564;9.302;2023-11-22T12:52:56;11.00;;;6.07;;
66118;SDS011;52912;48.564;9.302;2023-11-22T12:55:23;12.00;;;6.05;;
66118;SDS011;52912;48.564;9.302;2023-11-22T12:57:55;9.40;;;5.72;;
66118;SDS011;52912;48.564;9.302;2023-11-22T13:00:21;8.50;;;5.25;;
66118;SDS011;52912;48.564;9.302;2023-11-22T13:02:47;8.68;;;5.43;;
66118;SDS011;52912;48.564;9.302;2023-11-22T13:05:12;9.38;;;5.60;;
66118;SDS011;52912;48.564;9.302;2023-11-22T13:07:38;11.30;;;5.15;;
66118;SDS011;52912;48.564;9.302;2023-11-22T13:10:03;8.35;;;5.47;;
66118;SDS011;52912;48.564;9.302;2023-11-22T13:12:31;9.52;;;5.57;;
66118;SDS011;52912;48.564;9.302;2023-11-22T13:14:56;8.60;;;5.40;;
66118;SDS011;52912;48.564;9.302;2023-11-22T13:17:22;10.05;;;5.75;;
66118;SDS011;52912;48.564;9.302;2023-11-22T13:19:47;10.10;;;5.15;;
66118;SDS011;52912;48.564;9.302;2023-11-22T13:22:13;7.65;;;4.72;;
66118;SDS011;52912;48.564;9.302;2023-11-22T13:24:38;9.00;;;4.90;;
66118;SDS011;52912;48.564;9.302;2023-11-22T13:27:03;10.55;;;4.78;;
66118;SDS011;52912;48.564;9.302;2023-11-22T13:29:30;8.82;;;4.50;;
66118;SDS011;52912;48.564;9.302;2023-11-22T13:31:56;7.18;;;4.60;;
66118;SDS011;52912;48.564;9.302;2023-11-22T13:34:21;7.90;;;5.00;;
66118;SDS011;52912;48.564;9.302;2023-11-22T13:36:46;8.13;;;4.72;;
66118;SDS011;52912;48.564;9.302;2023-11-22T13:39:12;8.57;;;4.60;;
66118;SDS011;52912;48.564;9.302;2023-11-22T13:41:37;7.00;;;4.80;;
66118;SDS011;52912;48.564;9.302;2023-11-22T13:44:03;8.45;;;4.85;;
66118;SDS011;52912;48.564;9.302;2023-11-22T13:46:30;12.00;;;5.32;;
66118;SDS011;52912;48.564;9.302;2023-11-22T13:48:55;7.97;;;4.88;;
66118;SDS011;52912;48.564;9.302;2023-11-22T13:51:21;9.90;;;5.18;;
66118;SDS011;52912;48.564;9.302;2023-11-22T13:53:46;9.45;;;5.00;;
66118;SDS011;52912;48.564;9.302;2023-11-22T13:56:12;7.65;;;4.90;;
66118;SDS011;52912;48.564;9.302;2023-11-22T13:58:37;7.47;;;4.82;;
66118;SDS011;52912;48.564;9.302;2023-11-22T14:01:03;9.88;;;5.10;;
66118;SDS011;52912;48.564;9.302;2023-11-22T14:03:30;8.48;;;4.93;;
66118;SDS011;52912;48.564;9.302;2023-11-22T14:05:55;7.05;;;4.50;;
66118;SDS011;52912;48.564;9.302;2023-11-22T14:08:21;10.88;;;5.10;;
66118;SDS011;52912;48.564;9.302;2023-11-22T14:10:46;10.82;;;5.20;;
66118;SDS011;52912;48.564;9.302;2023-11-22T14:13:12;12.10;;;5.20;;
66118;SDS011;52912;48.564;9.302;2023-11-22T14:15:37;10.75;;;6.10;;
66118;SDS011;52912;48.564;9.302;2023-11-22T14:18:03;12.32;;;6.90;;
66118;SDS011;52912;48.564;9.302;2023-11-22T14:20:29;9.70;;;5.50;;
66118;SDS011;52912;48.564;9.302;2023-11-22T14:22:55;10.18;;;5.63;;
66118;SDS011;52912;48.564;9.302;2023-11-22T14:25:20;10.75;;;5.50;;
66118;SDS011;52912;48.564;9.302;2023-11-22T14:27:46;10.30;;;4.88;;
66118;SDS011;52912;48.564;9.302;2023-11-22T14:30:12;9.38;;;5.05;;
66118;SDS011;52912;48.564;9.302;2023-11-22T14:32:38;7.03;;;5.00;;
66118;SDS011;52912;48.564;9.302;2023-11-22T14:35:04;8.73;;;5.13;;
66118;SDS011;52912;48.564;9.302;2023-11-22T14:37:31;8.05;;;5.40;;
66118;SDS011;52912;48.564;9.302;2023-11-22T14:39:56;8.90;;;5.20;;
66118;SDS011;52912;48.564;9.302;2023-11-22T14:42:22;10.32;;;5.18;;